sensor_id;sensor_type;location;lat;lon;timestamp;temperature;humidity
15815;DHT22;8008;50.024;8.172;2023-08-31T03:00:16;13.50;99.90
15815;DHT22;8008;50.024;8.172;2023-08-31T03:02:48;13.50;99.90
15815;DHT22;8008;50.024;8.172;2023-08-31T03:05:16;13.40;99.90
15815;DHT22;8008;50.024;8.172;2023-08-31T03:07:44;13.40;99.90
15815;DHT22;8008;50.024;8.172;2023-08-31T03:10:12;13.40;99.90
15815;DHT22;8008;50.024;8.172;2023-08-31T03:12:40;13.40;99.90
15815;DHT22;8008;50.024;8.172;2023-08-31T03:15:09;13.40;99.90
15815;DHT22;8008;50.024;8.172;2023-08-31T03:17:38;13.40;99.90
15815;DHT22;8008;50.024;8.172;2023-08-31T03:20:08;13.30;99.90
15815;DHT22;8008;50.024;8.172;2023-08-31T03:22:37;13.30;99.90
15815;DHT22;8008;50.024;8.172;2023-08-31T03:25:05;13.30;99.90
15815;DHT22;8008;50.024;8.172;2023-08-31T03:27:33;13.30;99.90
15815;DHT22;8008;50.024;8.172;2023-08-31T03:30:01;13.20;99.90
15815;DHT22;8008;50.024;8.172;2023-08-31T03:32:30;13.30;99.90
15815;DHT22;8008;50.024;8.172;2023-08-31T03:35:01;13.20;99.90
15815;DHT22;8008;50.024;8.172;2023-08-31T03:37:29;13.30;99.90
15815;DHT22;8008;50.024;8.172;2023-08-31T03:39:57;13.20;99.90
15815;DHT22;8008;50.024;8.172;2023-08-31T03:42:25;13.30;99.90
15815;DHT22;8008;50.024;8.172;2023-08-31T03:44:53;13.40;99.90
15815;DHT22;8008;50.024;8.172;2023-08-31T03:47:21;13.40;99.90
15815;DHT22;8008;50.024;8.172;2023-08-31T03:49:49;13.40;99.90
15815;DHT22;8008;50.024;8.172;2023-08-31T03:52:18;13.40;99.90
15815;DHT22;8008;50.024;8.172;2023-08-31T03:54:47;13.50;99.90
15815;DHT22;8008;50.024;8.172;2023-08-31T03:57:16;13.40;99.90
15815;DHT22;8008;50.024;8.172;2023-08-31T03:59:44;13.50;99.90
15815;DHT22;8008;50.024;8.172;2023-08-31T04:02:13;13.60;99.90
15815;DHT22;8008;50.024;8.172;2023-08-31T04:04:40;13.50;99.90
15815;DHT22;8008;50.024;8.172;2023-08-31T04:07:08;13.40;99.90
15815;DHT22;8008;50.024;8.172;2023-08-31T04:09:38;13.30;99.90
15815;DHT22;8008;50.024;8.172;2023-08-31T04:12:06;13.30;99.90
15815;DHT22;8008;50.024;8.172;2023-08-31T04:14:34;13.30;99.90
15815;DHT22;8008;50.024;8.172;2023-08-31T04:17:02;13.20;99.90
15815;DHT22;8008;50.024;8.172;2023-08-31T04:19:31;13.20;99.90
15815;DHT22;8008;50.024;8.172;2023-08-31T04:21:59;13.10;99.90
15815;DHT22;8008;50.024;8.172;2023-08-31T04:24:27;13.00;99.90
15815;DHT22;8008;50.024;8.172;2023-08-31T04:26:56;13.00;99.90
15815;DHT22;8008;50.024;8.172;2023-08-31T04:29:24;12.90;99.90
15815;DHT22;8008;50.024;8.172;2023-08-31T04:31:52;12.90;99.90
15815;DHT22;8008;50.024;8.172;2023-08-31T04:34:21;12.80;99.90
15815;DHT22;8008;50.024;8.172;2023-08-31T04:36:49;12.70;99.90
15815;DHT22;8008;50.024;8.172;2023-08-31T04:39:16;12.60;99.90
15815;DHT22;8008;50.024;8.172;2023-08-31T04:41:44;12.60;99.90
15815;DHT22;8008;50.024;8.172;2023-08-31T04:44:14;12.60;99.90
15815;DHT22;8008;50.024;8.172;2023-08-31T04:46:42;12.60;99.90
15815;DHT22;8008;50.024;8.172;2023-08-31T04:49:10;12.70;99.90
15815;DHT22;8008;50.024;8.172;2023-08-31T04:51:37;12.70;99.90
15815;DHT22;8008;50.024;8.172;2023-08-31T04:54:06;12.80;99.90
15815;DHT22;8008;50.024;8.172;2023-08-31T04:56:35;12.90;99.90
15815;DHT22;8008;50.024;8.172;2023-08-31T04:59:04;12.90;99.90
15815;DHT22;8008;50.024;8.172;2023-08-31T05:01:33;13.00;99.90
15815;DHT22;8008;50.024;8.172;2023-08-31T05:04:03;13.00;99.90
15815;DHT22;8008;50.024;8.172;2023-08-31T05:06:31;13.00;99.90
15815;DHT22;8008;50.024;8.172;2023-08-31T05:08:59;12.90;99.90
15815;DHT22;8008;50.024;8.172;2023-08-31T05:11:27;12.80;99.90
15815;DHT22;8008;50.024;8.172;2023-08-31T05:13:55;12.80;99.90
15815;DHT22;8008;50.024;8.172;2023-08-31T05:16:23;12.80;99.90
15815;DHT22;8008;50.024;8.172;2023-08-31T05:18:52;12.80;99.90
15815;DHT22;8008;50.024;8.172;2023-08-31T05:21:20;12.80;99.90
15815;DHT22;8008;50.024;8.172;2023-08-31T05:23:48;12.80;99.90
15815;DHT22;8008;50.024;8.172;2023-08-31T05:26:16;12.80;99.90
15815;DHT22;8008;50.024;8.172;2023-08-31T05:28:44;12.90;99.90
15815;DHT22;8008;50.024;8.172;2023-08-31T05:31:12;12.90;99.90
15815;DHT22;8008;50.024;8.172;2023-08-31T05:33:40;13.00;99.90
15815;DHT22;8008;50.024;8.172;2023-08-31T05:36:09;13.00;99.90
15815;DHT22;8008;50.024;8.172;2023-08-31T05:38:38;13.00;99.90
15815;DHT22;8008;50.024;8.172;2023-08-31T05:41:07;13.00;99.90
15815;DHT22;8008;50.024;8.172;2023-08-31T05:43:35;13.00;99.90
15815;DHT22;8008;50.024;8.172;2023-08-31T05:46:07;13.10;99.90
15815;DHT22;8008;50.024;8.172;2023-08-31T05:48:35;13.00;99.90
15815;DHT22;8008;50.024;8.172;2023-08-31T05:51:04;13.10;99.90
15815;DHT22;8008;50.024;8.172;2023-08-31T05:53:33;13.20;99.90
15815;DHT22;8008;50.024;8.172;2023-08-31T05:56:01;13.10;99.90
15815;DHT22;8008;50.024;8.172;2023-08-31T05:58:35;13.10;99.90
15815;DHT22;8008;50.024;8.172;2023-08-31T06:01:03;13.20;99.90
15815;DHT22;8008;50.024;8.172;2023-08-31T06:03:31;13.20;99.90
15815;DHT22;8008;50.024;8.172;2023-08-31T06:06:00;13.20;99.90
15815;DHT22;8008;50.024;8.172;2023-08-31T06:08:28;13.30;99.90
15815;DHT22;8008;50.024;8.172;2023-08-31T06:10:58;13.30;99.90
15815;DHT22;8008;50.024;8.172;2023-08-31T06:13:26;13.30;99.90
15815;DHT22;8008;50.024;8.172;2023-08-31T06:15:54;13.30;99.90
15815;DHT22;8008;50.024;8.172;2023-08-31T06:18:24;13.40;99.90
15815;DHT22;8008;50.024;8.172;2023-08-31T06:20:52;13.40;99.90
15815;DHT22;8008;50.024;8.172;2023-08-31T06:23:20;13.40;99.90
15815;DHT22;8008;50.024;8.172;2023-08-31T06:25:48;13.30;99.90
15815;DHT22;8008;50.024;8.172;2023-08-31T06:28:17;13.40;99.90
15815;DHT22;8008;50.024;8.172;2023-08-31T06:30:45;13.40;99.90
15815;DHT22;8008;50.024;8.172;2023-08-31T06:33:14;13.40;99.90
15815;DHT22;8008;50.024;8.172;2023-08-31T06:35:42;13.50;99.90
15815;DHT22;8008;50.024;8.172;2023-08-31T06:38:10;13.50;99.90
15815;DHT22;8008;50.024;8.172;2023-08-31T06:40:38;13.50;99.90
15815;DHT22;8008;50.024;8.172;2023-08-31T06:43:06;13.50;99.90
15815;DHT22;8008;50.024;8.172;2023-08-31T06:45:36;13.50;99.90
15815;DHT22;8008;50.024;8.172;2023-08-31T06:48:04;13.50;99.90
15815;DHT22;8008;50.024;8.172;2023-08-31T06:50:33;13.50;99.90
15815;DHT22;8008;50.024;8.172;2023-08-31T06:53:02;13.60;99.90
15815;DHT22;8008;50.024;8.172;2023-08-31T06:55:31;13.60;99.90
15815;DHT22;8008;50.024;8.172;2023-08-31T06:58:01;13.70;99.90
15815;DHT22;8008;50.024;8.172;2023-08-31T07:00:29;13.90;99.90
15815;DHT22;8008;50.024;8.172;2023-08-31T07:03:00;14.00;99.90
15815;DHT22;8008;50.024;8.172;2023-08-31T07:05:33;14.10;99.90
15815;DHT22;8008;50.024;8.172;2023-08-31T07:08:02;14.10;99.90
15815;DHT22;8008;50.024;8.172;2023-08-31T07:10:30;14.00;99.90
15815;DHT22;8008;50.024;8.172;2023-08-31T07:12:58;14.00;99.90
15815;DHT22;8008;50.024;8.172;2023-08-31T07:15:26;14.00;99.90
15815;DHT22;8008;50.024;8.172;2023-08-31T07:17:57;13.90;99.90
15815;DHT22;8008;50.024;8.172;2023-08-31T07:20:26;14.00;99.90
15815;DHT22;8008;50.024;8.172;2023-08-31T07:22:54;14.00;99.90
15815;DHT22;8008;50.024;8.172;2023-08-31T07:25:22;14.00;99.90
15815;DHT22;8008;50.024;8.172;2023-08-31T07:27:50;14.10;99.90
15815;DHT22;8008;50.024;8.172;2023-08-31T07:30:19;14.10;99.90
15815;DHT22;8008;50.024;8.172;2023-08-31T07:32:47;14.10;99.90
15815;DHT22;8008;50.024;8.172;2023-08-31T07:35:15;14.20;99.90
15815;DHT22;8008;50.024;8.172;2023-08-31T07:37:44;14.30;99.90
15815;DHT22;8008;50.024;8.172;2023-08-31T07:40:12;14.30;99.90
15815;DHT22;8008;50.024;8.172;2023-08-31T07:42:40;14.30;99.90
15815;DHT22;8008;50.024;8.172;2023-08-31T07:45:09;14.40;99.90
15815;DHT22;8008;50.024;8.172;2023-08-31T07:47:37;14.50;99.90
15815;DHT22;8008;50.024;8.172;2023-08-31T07:50:06;14.50;99.90
15815;DHT22;8008;50.024;8.172;2023-08-31T07:52:34;14.60;99.90
15815;DHT22;8008;50.024;8.172;2023-08-31T07:55:04;14.70;99.90
15815;DHT22;8008;50.024;8.172;2023-08-31T07:57:32;14.80;99.90
15815;DHT22;8008;50.024;8.172;2023-08-31T08:00:01;15.00;99.90
15815;DHT22;8008;50.024;8.172;2023-08-31T08:02:38;15.20;99.90
15815;DHT22;8008;50.024;8.172;2023-08-31T08:05:07;15.20;99.90
15815;DHT22;8008;50.024;8.172;2023-08-31T08:07:35;15.30;99.90
15815;DHT22;8008;50.024;8.172;2023-08-31T08:10:05;15.40;99.90
15815;DHT22;8008;50.024;8.172;2023-08-31T08:12:37;15.60;99.90
15815;DHT22;8008;50.024;8.172;2023-08-31T08:15:06;15.70;99.90
15815;DHT22;8008;50.024;8.172;2023-08-31T08:17:35;15.90;99.90
15815;DHT22;8008;50.024;8.172;2023-08-31T08:20:04;15.90;99.90
15815;DHT22;8008;50.024;8.172;2023-08-31T08:22:33;15.90;99.90
15815;DHT22;8008;50.024;8.172;2023-08-31T08:25:03;16.00;99.90
15815;DHT22;8008;50.024;8.172;2023-08-31T08:27:32;16.10;99.90
15815;DHT22;8008;50.024;8.172;2023-08-31T08:30:01;16.20;99.90
15815;DHT22;8008;50.024;8.172;2023-08-31T08:32:30;16.20;99.90
15815;DHT22;8008;50.024;8.172;2023-08-31T08:34:58;16.30;99.90
15815;DHT22;8008;50.024;8.172;2023-08-31T08:37:26;16.10;99.90
15815;DHT22;8008;50.024;8.172;2023-08-31T08:39:56;16.10;99.90
15815;DHT22;8008;50.024;8.172;2023-08-31T08:42:24;16.10;99.90
15815;DHT22;8008;50.024;8.172;2023-08-31T08:44:56;16.10;99.90
15815;DHT22;8008;50.024;8.172;2023-08-31T08:47:25;16.20;99.90
15815;DHT22;8008;50.024;8.172;2023-08-31T08:49:54;16.10;99.90
15815;DHT22;8008;50.024;8.172;2023-08-31T08:52:22;16.10;99.90
15815;DHT22;8008;50.024;8.172;2023-08-31T08:54:50;16.10;99.90
15815;DHT22;8008;50.024;8.172;2023-08-31T08:57:19;16.10;99.90
15815;DHT22;8008;50.024;8.172;2023-08-31T08:59:47;16.20;99.90
15815;DHT22;8008;50.024;8.172;2023-08-31T09:02:16;16.30;99.90
15815;DHT22;8008;50.024;8.172;2023-08-31T09:04:44;16.40;99.90
15815;DHT22;8008;50.024;8.172;2023-08-31T09:07:12;16.60;99.90
15815;DHT22;8008;50.024;8.172;2023-08-31T09:09:49;16.70;99.90
15815;DHT22;8008;50.024;8.172;2023-08-31T09:12:18;16.70;99.90
15815;DHT22;8008;50.024;8.172;2023-08-31T09:14:57;16.80;99.90
15815;DHT22;8008;50.024;8.172;2023-08-31T09:17:37;16.90;99.90
15815;DHT22;8008;50.024;8.172;2023-08-31T09:20:07;17.00;99.90
15815;DHT22;8008;50.024;8.172;2023-08-31T09:22:35;17.10;99.90
15815;DHT22;8008;50.024;8.172;2023-08-31T09:25:08;17.10;99.90
15815;DHT22;8008;50.024;8.172;2023-08-31T09:27:38;17.10;99.90
15815;DHT22;8008;50.024;8.172;2023-08-31T09:30:07;17.20;99.90
15815;DHT22;8008;50.024;8.172;2023-08-31T09:32:37;17.20;99.90
15815;DHT22;8008;50.024;8.172;2023-08-31T09:35:08;17.30;99.90
15815;DHT22;8008;50.024;8.172;2023-08-31T09:37:55;17.40;99.90
15815;DHT22;8008;50.024;8.172;2023-08-31T09:40:24;17.60;99.90
15815;DHT22;8008;50.024;8.172;2023-08-31T09:42:52;17.70;99.90
15815;DHT22;8008;50.024;8.172;2023-08-31T09:45:25;17.80;99.90
15815;DHT22;8008;50.024;8.172;2023-08-31T09:48:14;18.00;99.90
15815;DHT22;8008;50.024;8.172;2023-08-31T09:50:44;17.90;99.90
15815;DHT22;8008;50.024;8.172;2023-08-31T09:53:16;17.90;99.90
15815;DHT22;8008;50.024;8.172;2023-08-31T09:55:44;17.90;99.90
15815;DHT22;8008;50.024;8.172;2023-08-31T09:58:17;18.00;99.90
15815;DHT22;8008;50.024;8.172;2023-08-31T10:00:46;18.00;99.90
15815;DHT22;8008;50.024;8.172;2023-08-31T10:03:17;18.00;99.90
15815;DHT22;8008;50.024;8.172;2023-08-31T10:05:47;18.00;99.90
15815;DHT22;8008;50.024;8.172;2023-08-31T10:08:17;18.20;99.90
15815;DHT22;8008;50.024;8.172;2023-08-31T10:10:45;18.40;99.90
15815;DHT22;8008;50.024;8.172;2023-08-31T10:13:14;18.50;99.90
15815;DHT22;8008;50.024;8.172;2023-08-31T10:15:44;18.70;99.90
15815;DHT22;8008;50.024;8.172;2023-08-31T10:18:12;18.70;99.90
15815;DHT22;8008;50.024;8.172;2023-08-31T10:20:43;18.70;99.90
15815;DHT22;8008;50.024;8.172;2023-08-31T10:23:13;18.60;99.90
15815;DHT22;8008;50.024;8.172;2023-08-31T10:26:00;18.40;99.90
15815;DHT22;8008;50.024;8.172;2023-08-31T10:28:28;18.60;99.90
15815;DHT22;8008;50.024;8.172;2023-08-31T10:31:03;18.70;99.90
15815;DHT22;8008;50.024;8.172;2023-08-31T10:33:32;18.90;99.90
15815;DHT22;8008;50.024;8.172;2023-08-31T10:36:01;18.90;99.90
15815;DHT22;8008;50.024;8.172;2023-08-31T10:38:31;18.90;99.90
15815;DHT22;8008;50.024;8.172;2023-08-31T10:41:00;19.10;99.90
15815;DHT22;8008;50.024;8.172;2023-08-31T10:43:43;19.30;99.90
15815;DHT22;8008;50.024;8.172;2023-08-31T10:46:25;19.40;99.90
15815;DHT22;8008;50.024;8.172;2023-08-31T10:48:55;19.30;99.90
15815;DHT22;8008;50.024;8.172;2023-08-31T10:51:26;19.40;99.90
15815;DHT22;8008;50.024;8.172;2023-08-31T10:54:05;19.30;99.90
15815;DHT22;8008;50.024;8.172;2023-08-31T10:56:33;19.20;99.90
15815;DHT22;8008;50.024;8.172;2023-08-31T10:59:01;19.20;99.90
15815;DHT22;8008;50.024;8.172;2023-08-31T11:01:54;19.30;99.90
15815;DHT22;8008;50.024;8.172;2023-08-31T11:04:24;19.60;99.90
15815;DHT22;8008;50.024;8.172;2023-08-31T11:07:13;19.80;99.90
15815;DHT22;8008;50.024;8.172;2023-08-31T11:09:43;19.70;99.90
15815;DHT22;8008;50.024;8.172;2023-08-31T11:12:11;19.70;99.90
15815;DHT22;8008;50.024;8.172;2023-08-31T11:14:40;19.80;99.90
15815;DHT22;8008;50.024;8.172;2023-08-31T11:17:08;19.60;99.90
15815;DHT22;8008;50.024;8.172;2023-08-31T11:19:37;19.50;99.90
15815;DHT22;8008;50.024;8.172;2023-08-31T11:22:06;19.40;99.90
15815;DHT22;8008;50.024;8.172;2023-08-31T11:24:37;19.40;99.90
15815;DHT22;8008;50.024;8.172;2023-08-31T11:27:09;19.40;99.90
15815;DHT22;8008;50.024;8.172;2023-08-31T11:29:38;19.40;99.90
15815;DHT22;8008;50.024;8.172;2023-08-31T11:32:06;19.50;99.90
15815;DHT22;8008;50.024;8.172;2023-08-31T11:34:34;19.60;99.90
15815;DHT22;8008;50.024;8.172;2023-08-31T11:37:04;19.80;99.90
15815;DHT22;8008;50.024;8.172;2023-08-31T11:39:32;20.00;99.90
15815;DHT22;8008;50.024;8.172;2023-08-31T11:42:02;20.20;99.90
15815;DHT22;8008;50.024;8.172;2023-08-31T11:44:30;20.40;99.90
15815;DHT22;8008;50.024;8.172;2023-08-31T11:46:58;20.70;99.90
15815;DHT22;8008;50.024;8.172;2023-08-31T11:49:27;20.90;99.90
15815;DHT22;8008;50.024;8.172;2023-08-31T11:51:55;21.20;99.90
15815;DHT22;8008;50.024;8.172;2023-08-31T11:54:25;21.70;99.90
15815;DHT22;8008;50.024;8.172;2023-08-31T11:56:53;21.80;97.60
15815;DHT22;8008;50.024;8.172;2023-08-31T11:59:22;21.80;98.60
15815;DHT22;8008;50.024;8.172;2023-08-31T12:01:50;21.80;98.00
15815;DHT22;8008;50.024;8.172;2023-08-31T12:04:21;21.90;97.50
15815;DHT22;8008;50.024;8.172;2023-08-31T12:06:51;21.50;97.40
15815;DHT22;8008;50.024;8.172;2023-08-31T12:09:20;22.00;96.60
15815;DHT22;8008;50.024;8.172;2023-08-31T12:11:52;22.40;94.90
15815;DHT22;8008;50.024;8.172;2023-08-31T12:14:22;22.90;94.30
15815;DHT22;8008;50.024;8.172;2023-08-31T12:16:51;23.30;92.90
15815;DHT22;8008;50.024;8.172;2023-08-31T12:19:19;23.70;92.50
15815;DHT22;8008;50.024;8.172;2023-08-31T12:21:47;23.30;90.30
15815;DHT22;8008;50.024;8.172;2023-08-31T12:24:15;23.00;88.90
15815;DHT22;8008;50.024;8.172;2023-08-31T12:26:44;22.90;88.00
15815;DHT22;8008;50.024;8.172;2023-08-31T12:29:12;22.40;88.30
15815;DHT22;8008;50.024;8.172;2023-08-31T12:31:41;22.10;87.50
15815;DHT22;8008;50.024;8.172;2023-08-31T12:34:10;21.80;87.90
15815;DHT22;8008;50.024;8.172;2023-08-31T12:36:38;21.70;86.90
15815;DHT22;8008;50.024;8.172;2023-08-31T12:39:08;21.60;87.50
15815;DHT22;8008;50.024;8.172;2023-08-31T12:41:37;21.70;85.40
15815;DHT22;8008;50.024;8.172;2023-08-31T12:44:05;21.60;82.40
15815;DHT22;8008;50.024;8.172;2023-08-31T12:46:34;21.60;80.60
15815;DHT22;8008;50.024;8.172;2023-08-31T12:49:03;21.50;81.80
15815;DHT22;8008;50.024;8.172;2023-08-31T12:51:31;21.50;83.90
15815;DHT22;8008;50.024;8.172;2023-08-31T12:54:00;21.40;83.80
15815;DHT22;8008;50.024;8.172;2023-08-31T12:56:28;21.50;84.30
15815;DHT22;8008;50.024;8.172;2023-08-31T12:58:57;21.40;84.00
15815;DHT22;8008;50.024;8.172;2023-08-31T13:01:25;21.30;84.40
15815;DHT22;8008;50.024;8.172;2023-08-31T13:03:53;21.30;85.40
15815;DHT22;8008;50.024;8.172;2023-08-31T13:06:22;21.20;85.90
15815;DHT22;8008;50.024;8.172;2023-08-31T13:08:52;21.30;85.30
15815;DHT22;8008;50.024;8.172;2023-08-31T13:11:20;21.50;85.30
15815;DHT22;8008;50.024;8.172;2023-08-31T13:13:50;21.60;85.40
15815;DHT22;8008;50.024;8.172;2023-08-31T13:16:19;21.80;85.10
15815;DHT22;8008;50.024;8.172;2023-08-31T13:18:48;21.80;85.10
15815;DHT22;8008;50.024;8.172;2023-08-31T13:21:16;21.50;86.40
15815;DHT22;8008;50.024;8.172;2023-08-31T13:23:46;21.20;87.00
15815;DHT22;8008;50.024;8.172;2023-08-31T13:26:14;21.20;87.00
15815;DHT22;8008;50.024;8.172;2023-08-31T13:28:42;21.20;88.30
15815;DHT22;8008;50.024;8.172;2023-08-31T13:31:10;21.20;88.30
15815;DHT22;8008;50.024;8.172;2023-08-31T13:33:39;21.00;86.90
15815;DHT22;8008;50.024;8.172;2023-08-31T13:36:06;20.90;87.40
15815;DHT22;8008;50.024;8.172;2023-08-31T13:38:36;20.90;88.40
15815;DHT22;8008;50.024;8.172;2023-08-31T13:41:05;21.40;89.70
15815;DHT22;8008;50.024;8.172;2023-08-31T13:43:35;22.20;87.20
15815;DHT22;8008;50.024;8.172;2023-08-31T13:46:03;23.30;83.80
15815;DHT22;8008;50.024;8.172;2023-08-31T13:48:31;24.30;83.40
15815;DHT22;8008;50.024;8.172;2023-08-31T13:50:59;24.50;78.90
15815;DHT22;8008;50.024;8.172;2023-08-31T13:53:27;24.30;81.10
15815;DHT22;8008;50.024;8.172;2023-08-31T13:55:55;25.40;81.60
15815;DHT22;8008;50.024;8.172;2023-08-31T13:58:24;25.10;79.90
15815;DHT22;8008;50.024;8.172;2023-08-31T14:00:52;25.20;81.00
15815;DHT22;8008;50.024;8.172;2023-08-31T14:03:20;24.20;80.50
15815;DHT22;8008;50.024;8.172;2023-08-31T14:05:49;23.30;84.20
15815;DHT22;8008;50.024;8.172;2023-08-31T14:08:17;22.90;83.00
15815;DHT22;8008;50.024;8.172;2023-08-31T14:10:45;23.60;82.80
15815;DHT22;8008;50.024;8.172;2023-08-31T14:13:13;23.50;78.10
15815;DHT22;8008;50.024;8.172;2023-08-31T14:15:45;22.90;79.30
15815;DHT22;8008;50.024;8.172;2023-08-31T14:18:14;23.10;81.50
15815;DHT22;8008;50.024;8.172;2023-08-31T14:20:42;24.10;79.30
15815;DHT22;8008;50.024;8.172;2023-08-31T14:23:10;25.50;80.00
15815;DHT22;8008;50.024;8.172;2023-08-31T14:25:38;27.30;77.60
15815;DHT22;8008;50.024;8.172;2023-08-31T14:28:06;27.50;75.10
15815;DHT22;8008;50.024;8.172;2023-08-31T14:30:35;27.50;74.10
15815;DHT22;8008;50.024;8.172;2023-08-31T14:33:05;27.80;72.40
15815;DHT22;8008;50.024;8.172;2023-08-31T14:35:36;26.30;73.20
15815;DHT22;8008;50.024;8.172;2023-08-31T14:38:04;25.20;75.20
15815;DHT22;8008;50.024;8.172;2023-08-31T14:40:32;24.90;76.70
15815;DHT22;8008;50.024;8.172;2023-08-31T14:43:01;24.00;77.50
15815;DHT22;8008;50.024;8.172;2023-08-31T14:45:28;23.20;78.90
15815;DHT22;8008;50.024;8.172;2023-08-31T14:47:56;22.60;80.20
15815;DHT22;8008;50.024;8.172;2023-08-31T14:50:26;22.10;81.70
15815;DHT22;8008;50.024;8.172;2023-08-31T14:52:54;21.70;82.10
15815;DHT22;8008;50.024;8.172;2023-08-31T14:55:22;21.30;82.50
15815;DHT22;8008;50.024;8.172;2023-08-31T14:57:50;21.40;83.30
15815;DHT22;8008;50.024;8.172;2023-08-31T15:00:18;21.60;84.70
15815;DHT22;8008;50.024;8.172;2023-08-31T15:02:47;22.20;83.30
15815;DHT22;8008;50.024;8.172;2023-08-31T15:05:15;23.10;84.00
15815;DHT22;8008;50.024;8.172;2023-08-31T15:07:44;23.60;82.50
15815;DHT22;8008;50.024;8.172;2023-08-31T15:10:13;23.90;82.40
15815;DHT22;8008;50.024;8.172;2023-08-31T15:12:40;23.90;81.50
15815;DHT22;8008;50.024;8.172;2023-08-31T15:15:10;23.60;82.10
15815;DHT22;8008;50.024;8.172;2023-08-31T15:17:38;23.50;82.60
15815;DHT22;8008;50.024;8.172;2023-08-31T15:20:07;22.90;83.00
15815;DHT22;8008;50.024;8.172;2023-08-31T15:22:35;22.40;84.20
15815;DHT22;8008;50.024;8.172;2023-08-31T15:25:06;22.30;85.00
15815;DHT22;8008;50.024;8.172;2023-08-31T15:27:34;22.00;86.30
15815;DHT22;8008;50.024;8.172;2023-08-31T15:30:02;21.70;86.90
15815;DHT22;8008;50.024;8.172;2023-08-31T15:32:31;21.60;88.20
15815;DHT22;8008;50.024;8.172;2023-08-31T15:34:59;21.50;88.00
15815;DHT22;8008;50.024;8.172;2023-08-31T15:37:27;21.30;88.70
15815;DHT22;8008;50.024;8.172;2023-08-31T15:39:55;21.20;89.80
15815;DHT22;8008;50.024;8.172;2023-08-31T15:42:25;21.10;90.10
15815;DHT22;8008;50.024;8.172;2023-08-31T15:44:54;21.00;90.20
15815;DHT22;8008;50.024;8.172;2023-08-31T15:47:22;20.80;90.40
15815;DHT22;8008;50.024;8.172;2023-08-31T15:49:51;20.80;90.60
15815;DHT22;8008;50.024;8.172;2023-08-31T15:52:19;20.70;90.70
15815;DHT22;8008;50.024;8.172;2023-08-31T15:54:47;20.60;90.90
15815;DHT22;8008;50.024;8.172;2023-08-31T15:57:15;20.60;91.60
15815;DHT22;8008;50.024;8.172;2023-08-31T15:59:47;20.60;91.90
15815;DHT22;8008;50.024;8.172;2023-08-31T16:02:15;20.60;91.50
15815;DHT22;8008;50.024;8.172;2023-08-31T16:04:43;20.60;92.00
15815;DHT22;8008;50.024;8.172;2023-08-31T16:07:13;20.50;92.00
15815;DHT22;8008;50.024;8.172;2023-08-31T16:09:41;20.50;92.30
15815;DHT22;8008;50.024;8.172;2023-08-31T16:12:09;20.40;92.30
15815;DHT22;8008;50.024;8.172;2023-08-31T16:14:37;20.40;92.20
15815;DHT22;8008;50.024;8.172;2023-08-31T16:17:06;20.30;92.40
15815;DHT22;8008;50.024;8.172;2023-08-31T16:19:34;20.40;93.00
15815;DHT22;8008;50.024;8.172;2023-08-31T16:22:03;20.50;93.40
15815;DHT22;8008;50.024;8.172;2023-08-31T16:24:32;20.50;93.30
15815;DHT22;8008;50.024;8.172;2023-08-31T16:27:00;20.50;93.00
15815;DHT22;8008;50.024;8.172;2023-08-31T16:29:28;20.30;92.90
15815;DHT22;8008;50.024;8.172;2023-08-31T16:31:56;20.30;93.10
15815;DHT22;8008;50.024;8.172;2023-08-31T16:34:25;20.30;93.10
15815;DHT22;8008;50.024;8.172;2023-08-31T16:36:53;20.30;93.50
15815;DHT22;8008;50.024;8.172;2023-08-31T16:39:21;20.30;93.50
15815;DHT22;8008;50.024;8.172;2023-08-31T16:41:49;20.30;93.40
15815;DHT22;8008;50.024;8.172;2023-08-31T16:44:17;20.20;93.70
15815;DHT22;8008;50.024;8.172;2023-08-31T16:46:46;20.20;93.80
15815;DHT22;8008;50.024;8.172;2023-08-31T16:49:13;20.20;94.40
15815;DHT22;8008;50.024;8.172;2023-08-31T16:51:43;20.20;94.00
15815;DHT22;8008;50.024;8.172;2023-08-31T16:54:11;20.10;94.50
15815;DHT22;8008;50.024;8.172;2023-08-31T16:56:39;20.20;94.40
15815;DHT22;8008;50.024;8.172;2023-08-31T16:59:07;20.10;94.50
15815;DHT22;8008;50.024;8.172;2023-08-31T17:01:35;20.10;94.90
15815;DHT22;8008;50.024;8.172;2023-08-31T17:04:03;20.10;94.80
15815;DHT22;8008;50.024;8.172;2023-08-31T17:06:34;20.10;95.10
15815;DHT22;8008;50.024;8.172;2023-08-31T17:09:03;19.90;95.00
15815;DHT22;8008;50.024;8.172;2023-08-31T17:11:34;19.80;94.90
15815;DHT22;8008;50.024;8.172;2023-08-31T17:14:03;19.80;95.30
15815;DHT22;8008;50.024;8.172;2023-08-31T17:16:32;19.80;95.50
15815;DHT22;8008;50.024;8.172;2023-08-31T17:19:00;19.60;95.60
15815;DHT22;8008;50.024;8.172;2023-08-31T17:21:30;19.60;95.90
15815;DHT22;8008;50.024;8.172;2023-08-31T17:23:57;19.50;95.80
15815;DHT22;8008;50.024;8.172;2023-08-31T17:26:27;19.50;95.70
15815;DHT22;8008;50.024;8.172;2023-08-31T17:28:55;19.40;95.60
15815;DHT22;8008;50.024;8.172;2023-08-31T17:31:22;19.30;95.80
15815;DHT22;8008;50.024;8.172;2023-08-31T17:33:52;19.30;96.10
15815;DHT22;8008;50.024;8.172;2023-08-31T17:36:20;19.30;96.10
15815;DHT22;8008;50.024;8.172;2023-08-31T17:38:49;19.20;96.30
15815;DHT22;8008;50.024;8.172;2023-08-31T17:41:17;19.20;96.20
15815;DHT22;8008;50.024;8.172;2023-08-31T17:43:46;19.10;96.30
15815;DHT22;8008;50.024;8.172;2023-08-31T17:46:14;19.10;96.50
15815;DHT22;8008;50.024;8.172;2023-08-31T17:48:42;19.10;96.60
15815;DHT22;8008;50.024;8.172;2023-08-31T17:51:11;19.10;96.90
15815;DHT22;8008;50.024;8.172;2023-08-31T17:53:39;19.00;97.00
15815;DHT22;8008;50.024;8.172;2023-08-31T17:56:07;19.00;97.30
15815;DHT22;8008;50.024;8.172;2023-08-31T17:58:36;18.80;97.50
15815;DHT22;8008;50.024;8.172;2023-08-31T18:01:05;18.80;98.10
15815;DHT22;8008;50.024;8.172;2023-08-31T18:03:33;18.80;98.20
15815;DHT22;8008;50.024;8.172;2023-08-31T18:06:01;18.70;98.50
15815;DHT22;8008;50.024;8.172;2023-08-31T18:08:31;18.60;98.80
15815;DHT22;8008;50.024;8.172;2023-08-31T18:11:00;18.60;99.20
15815;DHT22;8008;50.024;8.172;2023-08-31T18:13:29;18.50;99.50
15815;DHT22;8008;50.024;8.172;2023-08-31T18:15:57;18.50;99.90
15815;DHT22;8008;50.024;8.172;2023-08-31T18:18:26;18.30;99.90
15815;DHT22;8008;50.024;8.172;2023-08-31T18:20:56;18.30;99.90
15815;DHT22;8008;50.024;8.172;2023-08-31T18:23:24;18.20;99.90
15815;DHT22;8008;50.024;8.172;2023-08-31T18:25:53;18.20;99.90
15815;DHT22;8008;50.024;8.172;2023-08-31T18:28:21;18.20;99.90
15815;DHT22;8008;50.024;8.172;2023-08-31T18:30:53;18.10;99.90
15815;DHT22;8008;50.024;8.172;2023-08-31T18:33:22;18.10;99.90
15815;DHT22;8008;50.024;8.172;2023-08-31T18:35:52;18.00;99.90
15815;DHT22;8008;50.024;8.172;2023-08-31T18:38:21;17.90;99.90
15815;DHT22;8008;50.024;8.172;2023-08-31T18:40:50;17.80;99.90
15815;DHT22;8008;50.024;8.172;2023-08-31T18:43:19;17.70;99.90
15815;DHT22;8008;50.024;8.172;2023-08-31T18:45:48;17.60;99.90
15815;DHT22;8008;50.024;8.172;2023-08-31T18:48:17;17.50;99.90
15815;DHT22;8008;50.024;8.172;2023-08-31T18:50:45;17.40;99.90
15815;DHT22;8008;50.024;8.172;2023-08-31T18:53:14;17.30;99.90
15815;DHT22;8008;50.024;8.172;2023-08-31T18:55:42;17.30;99.90